sensor_id;sensor_type;location;lat;lon;timestamp;P1;durP1;ratioP1;P2;durP2;ratioP2
8007;SDS011;4049;49.468;11.200;2024-02-04T00:02:18;3.17;;;2.63;;
8007;SDS011;4049;49.468;11.200;2024-02-04T00:04:45;3.23;;;2.83;;
8007;SDS011;4049;49.468;11.200;2024-02-04T00:07:12;3.13;;;2.73;;
8007;SDS011;4049;49.468;11.200;2024-02-04T00:09:39;2.70;;;2.33;;
8007;SDS011;4049;49.468;11.200;2024-02-04T00:12:05;2.47;;;2.10;;
8007;SDS011;4049;49.468;11.200;2024-02-04T00:14:32;2.40;;;2.20;;
8007;SDS011;4049;49.468;11.200;2024-02-04T00:17:00;2.27;;;1.87;;
8007;SDS011;4049;49.468;11.200;2024-02-04T00:19:27;2.20;;;1.90;;
8007;SDS011;4049;49.468;11.200;2024-02-04T00:21:54;3.13;;;2.10;;
8007;SDS011;4049;49.468;11.200;2024-02-04T00:24:21;3.23;;;2.00;;
8007;SDS011;4049;49.468;11.200;2024-02-04T00:26:48;3.10;;;2.30;;
8007;SDS011;4049;49.468;11.200;2024-02-04T00:29:15;2.27;;;2.07;;
8007;SDS011;4049;49.468;11.200;2024-02-04T00:31:42;2.70;;;1.90;;
8007;SDS011;4049;49.468;11.200;2024-02-04T00:34:10;3.63;;;2.20;;
8007;SDS011;4049;49.468;11.200;2024-02-04T00:36:37;2.47;;;2.00;;
8007;SDS011;4049;49.468;11.200;2024-02-04T00:39:06;2.13;;;1.93;;
8007;SDS011;4049;49.468;11.200;2024-02-04T00:41:33;2.63;;;2.03;;
8007;SDS011;4049;49.468;11.200;2024-02-04T00:43:59;2.27;;;1.90;;
8007;SDS011;4049;49.468;11.200;2024-02-04T00:46:26;2.10;;;1.90;;
8007;SDS011;4049;49.468;11.200;2024-02-04T00:48:54;2.90;;;1.87;;
8007;SDS011;4049;49.468;11.200;2024-02-04T00:51:21;2.00;;;1.83;;
8007;SDS011;4049;49.468;11.200;2024-02-04T00:53:48;2.10;;;1.80;;
8007;SDS011;4049;49.468;11.200;2024-02-04T00:56:15;2.47;;;1.73;;
8007;SDS011;4049;49.468;11.200;2024-02-04T00:58:43;2.60;;;1.83;;
8007;SDS011;4049;49.468;11.200;2024-02-04T01:01:10;2.90;;;1.90;;
8007;SDS011;4049;49.468;11.200;2024-02-04T01:03:37;1.67;;;1.40;;
8007;SDS011;4049;49.468;11.200;2024-02-04T01:06:05;2.30;;;1.90;;
8007;SDS011;4049;49.468;11.200;2024-02-04T01:08:33;3.03;;;1.50;;
8007;SDS011;4049;49.468;11.200;2024-02-04T01:11:02;1.70;;;1.60;;
8007;SDS011;4049;49.468;11.200;2024-02-04T01:13:30;2.00;;;1.80;;
8007;SDS011;4049;49.468;11.200;2024-02-04T01:15:57;2.40;;;1.80;;
8007;SDS011;4049;49.468;11.200;2024-02-04T01:18:24;3.07;;;1.80;;
8007;SDS011;4049;49.468;11.200;2024-02-04T01:21:00;2.00;;;1.60;;
8007;SDS011;4049;49.468;11.200;2024-02-04T01:23:26;2.67;;;1.90;;
8007;SDS011;4049;49.468;11.200;2024-02-04T01:26:04;1.90;;;1.70;;
8007;SDS011;4049;49.468;11.200;2024-02-04T01:28:31;1.70;;;1.60;;
8007;SDS011;4049;49.468;11.200;2024-02-04T01:30:58;1.70;;;1.60;;
8007;SDS011;4049;49.468;11.200;2024-02-04T01:33:25;1.93;;;1.73;;
8007;SDS011;4049;49.468;11.200;2024-02-04T01:35:52;2.53;;;1.53;;
8007;SDS011;4049;49.468;11.200;2024-02-04T01:38:19;1.90;;;1.70;;
8007;SDS011;4049;49.468;11.200;2024-02-04T01:40:46;1.77;;;1.50;;
8007;SDS011;4049;49.468;11.200;2024-02-04T01:43:15;1.70;;;1.60;;
8007;SDS011;4049;49.468;11.200;2024-02-04T01:45:42;1.70;;;1.60;;
8007;SDS011;4049;49.468;11.200;2024-02-04T01:48:09;1.67;;;1.43;;
8007;SDS011;4049;49.468;11.200;2024-02-04T01:50:35;4.27;;;1.67;;
8007;SDS011;4049;49.468;11.200;2024-02-04T01:53:03;2.03;;;1.70;;
8007;SDS011;4049;49.468;11.200;2024-02-04T01:55:38;1.57;;;1.47;;
8007;SDS011;4049;49.468;11.200;2024-02-04T01:58:05;2.77;;;1.80;;
8007;SDS011;4049;49.468;11.200;2024-02-04T02:00:34;1.83;;;1.60;;
8007;SDS011;4049;49.468;11.200;2024-02-04T02:03:01;1.80;;;1.60;;
8007;SDS011;4049;49.468;11.200;2024-02-04T02:05:30;2.07;;;1.87;;
8007;SDS011;4049;49.468;11.200;2024-02-04T02:07:56;2.13;;;1.53;;
8007;SDS011;4049;49.468;11.200;2024-02-04T02:10:24;2.20;;;1.70;;
8007;SDS011;4049;49.468;11.200;2024-02-04T02:12:56;2.13;;;1.67;;
8007;SDS011;4049;49.468;11.200;2024-02-04T02:15:28;4.67;;;1.90;;
8007;SDS011;4049;49.468;11.200;2024-02-04T02:18:04;2.23;;;2.03;;
8007;SDS011;4049;49.468;11.200;2024-02-04T02:20:38;3.03;;;2.30;;
8007;SDS011;4049;49.468;11.200;2024-02-04T02:23:17;3.37;;;2.63;;
8007;SDS011;4049;49.468;11.200;2024-02-04T02:25:49;5.13;;;3.70;;
8007;SDS011;4049;49.468;11.200;2024-02-04T02:28:17;4.13;;;3.73;;
8007;SDS011;4049;49.468;11.200;2024-02-04T02:30:44;2.87;;;2.60;;
8007;SDS011;4049;49.468;11.200;2024-02-04T02:33:11;2.60;;;2.40;;
8007;SDS011;4049;49.468;11.200;2024-02-04T02:35:38;2.53;;;2.10;;
8007;SDS011;4049;49.468;11.200;2024-02-04T02:38:07;2.33;;;2.10;;
8007;SDS011;4049;49.468;11.200;2024-02-04T02:40:45;2.00;;;1.80;;
8007;SDS011;4049;49.468;11.200;2024-02-04T02:43:17;2.10;;;1.90;;
8007;SDS011;4049;49.468;11.200;2024-02-04T02:45:44;1.93;;;1.73;;
8007;SDS011;4049;49.468;11.200;2024-02-04T02:48:12;2.57;;;2.00;;
8007;SDS011;4049;49.468;11.200;2024-02-04T02:50:39;2.17;;;1.97;;
8007;SDS011;4049;49.468;11.200;2024-02-04T02:53:06;3.10;;;2.30;;
8007;SDS011;4049;49.468;11.200;2024-02-04T02:55:33;3.00;;;2.40;;
8007;SDS011;4049;49.468;11.200;2024-02-04T02:58:00;2.20;;;2.00;;
8007;SDS011;4049;49.468;11.200;2024-02-04T03:00:28;2.40;;;2.10;;
8007;SDS011;4049;49.468;11.200;2024-02-04T03:02:56;2.73;;;2.30;;
8007;SDS011;4049;49.468;11.200;2024-02-04T03:05:23;2.80;;;1.90;;
8007;SDS011;4049;49.468;11.200;2024-02-04T03:07:50;2.60;;;2.30;;
8007;SDS011;4049;49.468;11.200;2024-02-04T03:10:17;2.63;;;2.03;;
8007;SDS011;4049;49.468;11.200;2024-02-04T03:12:44;2.10;;;1.90;;
8007;SDS011;4049;49.468;11.200;2024-02-04T03:15:11;1.93;;;1.70;;
8007;SDS011;4049;49.468;11.200;2024-02-04T03:17:39;2.30;;;2.10;;
8007;SDS011;4049;49.468;11.200;2024-02-04T03:20:06;3.17;;;2.00;;
8007;SDS011;4049;49.468;11.200;2024-02-04T03:22:33;1.93;;;1.70;;
8007;SDS011;4049;49.468;11.200;2024-02-04T03:25:00;2.77;;;2.00;;
8007;SDS011;4049;49.468;11.200;2024-02-04T03:27:32;2.37;;;1.90;;
8007;SDS011;4049;49.468;11.200;2024-02-04T03:29:59;1.77;;;1.67;;
8007;SDS011;4049;49.468;11.200;2024-02-04T03:32:26;1.97;;;1.77;;
8007;SDS011;4049;49.468;11.200;2024-02-04T03:34:55;1.97;;;1.67;;
8007;SDS011;4049;49.468;11.200;2024-02-04T03:37:22;3.57;;;2.17;;
8007;SDS011;4049;49.468;11.200;2024-02-04T03:39:49;2.73;;;2.20;;
8007;SDS011;4049;49.468;11.200;2024-02-04T03:42:16;2.27;;;2.07;;
8007;SDS011;4049;49.468;11.200;2024-02-04T03:44:43;2.70;;;2.37;;
8007;SDS011;4049;49.468;11.200;2024-02-04T03:47:10;2.20;;;1.93;;
8007;SDS011;4049;49.468;11.200;2024-02-04T03:49:36;2.33;;;2.03;;
8007;SDS011;4049;49.468;11.200;2024-02-04T03:52:05;2.90;;;2.20;;
8007;SDS011;4049;49.468;11.200;2024-02-04T03:54:32;2.10;;;1.87;;
8007;SDS011;4049;49.468;11.200;2024-02-04T03:56:58;2.47;;;2.10;;
8007;SDS011;4049;49.468;11.200;2024-02-04T03:59:25;2.33;;;1.93;;
8007;SDS011;4049;49.468;11.200;2024-02-04T04:01:58;2.50;;;1.90;;
8007;SDS011;4049;49.468;11.200;2024-02-04T04:04:25;3.50;;;2.20;;
8007;SDS011;4049;49.468;11.200;2024-02-04T04:06:51;2.67;;;2.23;;
8007;SDS011;4049;49.468;11.200;2024-02-04T04:09:20;3.43;;;2.43;;
8007;SDS011;4049;49.468;11.200;2024-02-04T04:11:46;3.17;;;2.50;;
8007;SDS011;4049;49.468;11.200;2024-02-04T04:14:13;3.60;;;2.60;;
8007;SDS011;4049;49.468;11.200;2024-02-04T04:16:40;2.63;;;2.37;;
8007;SDS011;4049;49.468;11.200;2024-02-04T04:19:07;2.47;;;2.13;;
8007;SDS011;4049;49.468;11.200;2024-02-04T04:21:34;2.90;;;2.47;;
8007;SDS011;4049;49.468;11.200;2024-02-04T04:24:02;3.27;;;2.60;;
8007;SDS011;4049;49.468;11.200;2024-02-04T04:26:33;2.43;;;2.20;;
8007;SDS011;4049;49.468;11.200;2024-02-04T04:29:00;4.43;;;3.10;;
8007;SDS011;4049;49.468;11.200;2024-02-04T04:31:27;4.87;;;3.33;;
8007;SDS011;4049;49.468;11.200;2024-02-04T04:33:54;3.83;;;2.40;;
8007;SDS011;4049;49.468;11.200;2024-02-04T04:36:21;2.80;;;2.30;;
8007;SDS011;4049;49.468;11.200;2024-02-04T04:38:48;4.07;;;2.80;;
8007;SDS011;4049;49.468;11.200;2024-02-04T04:41:19;3.80;;;3.10;;
8007;SDS011;4049;49.468;11.200;2024-02-04T04:43:47;3.63;;;2.97;;
8007;SDS011;4049;49.468;11.200;2024-02-04T04:46:14;2.97;;;2.30;;
8007;SDS011;4049;49.468;11.200;2024-02-04T04:48:41;3.60;;;2.60;;
8007;SDS011;4049;49.468;11.200;2024-02-04T04:51:07;2.67;;;2.23;;
8007;SDS011;4049;49.468;11.200;2024-02-04T04:53:35;3.20;;;2.23;;
8007;SDS011;4049;49.468;11.200;2024-02-04T04:56:03;2.97;;;2.23;;
8007;SDS011;4049;49.468;11.200;2024-02-04T04:58:30;3.23;;;2.53;;
8007;SDS011;4049;49.468;11.200;2024-02-04T05:00:58;2.77;;;2.27;;
8007;SDS011;4049;49.468;11.200;2024-02-04T05:03:25;3.27;;;2.77;;
8007;SDS011;4049;49.468;11.200;2024-02-04T05:05:52;2.90;;;2.60;;
8007;SDS011;4049;49.468;11.200;2024-02-04T05:08:19;3.30;;;2.13;;
8007;SDS011;4049;49.468;11.200;2024-02-04T05:10:49;3.13;;;2.67;;
8007;SDS011;4049;49.468;11.200;2024-02-04T05:13:16;2.87;;;2.40;;
8007;SDS011;4049;49.468;11.200;2024-02-04T05:15:42;2.73;;;2.10;;
8007;SDS011;4049;49.468;11.200;2024-02-04T05:18:10;2.17;;;1.90;;
8007;SDS011;4049;49.468;11.200;2024-02-04T05:20:37;2.50;;;1.90;;
8007;SDS011;4049;49.468;11.200;2024-02-04T05:23:04;2.27;;;1.50;;
8007;SDS011;4049;49.468;11.200;2024-02-04T05:25:31;1.77;;;1.60;;
8007;SDS011;4049;49.468;11.200;2024-02-04T05:27:58;1.50;;;1.40;;
8007;SDS011;4049;49.468;11.200;2024-02-04T05:30:24;2.07;;;1.50;;
8007;SDS011;4049;49.468;11.200;2024-02-04T05:32:51;2.03;;;1.50;;
8007;SDS011;4049;49.468;11.200;2024-02-04T05:35:20;2.00;;;1.60;;
8007;SDS011;4049;49.468;11.200;2024-02-04T05:37:46;1.50;;;1.37;;
8007;SDS011;4049;49.468;11.200;2024-02-04T05:40:13;2.50;;;1.47;;
8007;SDS011;4049;49.468;11.200;2024-02-04T05:42:42;1.70;;;1.40;;
8007;SDS011;4049;49.468;11.200;2024-02-04T05:45:09;1.30;;;1.20;;
8007;SDS011;4049;49.468;11.200;2024-02-04T05:47:36;1.50;;;1.40;;
8007;SDS011;4049;49.468;11.200;2024-02-04T05:50:03;1.30;;;1.20;;
8007;SDS011;4049;49.468;11.200;2024-02-04T05:52:32;1.40;;;1.30;;
8007;SDS011;4049;49.468;11.200;2024-02-04T05:54:59;1.83;;;1.30;;
8007;SDS011;4049;49.468;11.200;2024-02-04T05:57:25;3.17;;;1.30;;
8007;SDS011;4049;49.468;11.200;2024-02-04T05:59:52;1.20;;;1.10;;
8007;SDS011;4049;49.468;11.200;2024-02-04T06:02:20;1.30;;;1.20;;
8007;SDS011;4049;49.468;11.200;2024-02-04T06:04:48;1.30;;;1.17;;
8007;SDS011;4049;49.468;11.200;2024-02-04T06:07:14;1.27;;;1.17;;
8007;SDS011;4049;49.468;11.200;2024-02-04T06:09:43;1.40;;;1.30;;
8007;SDS011;4049;49.468;11.200;2024-02-04T06:12:10;1.20;;;1.10;;
8007;SDS011;4049;49.468;11.200;2024-02-04T06:14:36;1.17;;;1.07;;
8007;SDS011;4049;49.468;11.200;2024-02-04T06:17:04;1.40;;;1.10;;
8007;SDS011;4049;49.468;11.200;2024-02-04T06:19:33;1.20;;;1.10;;
8007;SDS011;4049;49.468;11.200;2024-02-04T06:22:00;1.30;;;1.20;;
8007;SDS011;4049;49.468;11.200;2024-02-04T06:24:27;1.43;;;1.27;;
8007;SDS011;4049;49.468;11.200;2024-02-04T06:26:56;2.67;;;1.40;;
8007;SDS011;4049;49.468;11.200;2024-02-04T06:29:22;1.13;;;1.03;;
8007;SDS011;4049;49.468;11.200;2024-02-04T06:31:49;1.23;;;1.10;;
8007;SDS011;4049;49.468;11.200;2024-02-04T06:34:16;1.53;;;1.30;;
8007;SDS011;4049;49.468;11.200;2024-02-04T06:36:43;1.37;;;1.27;;
8007;SDS011;4049;49.468;11.200;2024-02-04T06:39:10;1.00;;;1.00;;
8007;SDS011;4049;49.468;11.200;2024-02-04T06:41:37;1.30;;;1.20;;
8007;SDS011;4049;49.468;11.200;2024-02-04T06:44:05;1.37;;;1.10;;
8007;SDS011;4049;49.468;11.200;2024-02-04T06:46:32;1.70;;;1.20;;
8007;SDS011;4049;49.468;11.200;2024-02-04T06:48:59;2.07;;;1.20;;
8007;SDS011;4049;49.468;11.200;2024-02-04T06:51:26;1.30;;;1.20;;
8007;SDS011;4049;49.468;11.200;2024-02-04T06:53:53;1.20;;;1.10;;
8007;SDS011;4049;49.468;11.200;2024-02-04T06:56:20;1.13;;;1.00;;
8007;SDS011;4049;49.468;11.200;2024-02-04T06:58:47;1.07;;;0.97;;
8007;SDS011;4049;49.468;11.200;2024-02-04T07:01:15;0.80;;;0.80;;
8007;SDS011;4049;49.468;11.200;2024-02-04T07:03:42;1.27;;;1.10;;
8007;SDS011;4049;49.468;11.200;2024-02-04T07:06:09;4.33;;;2.90;;
8007;SDS011;4049;49.468;11.200;2024-02-04T07:08:36;7.67;;;4.17;;
8007;SDS011;4049;49.468;11.200;2024-02-04T07:11:02;2.90;;;1.60;;
8007;SDS011;4049;49.468;11.200;2024-02-04T07:13:29;3.23;;;1.50;;
8007;SDS011;4049;49.468;11.200;2024-02-04T07:15:59;3.67;;;1.90;;
8007;SDS011;4049;49.468;11.200;2024-02-04T07:18:27;1.90;;;1.40;;
8007;SDS011;4049;49.468;11.200;2024-02-04T07:20:54;2.37;;;1.50;;
8007;SDS011;4049;49.468;11.200;2024-02-04T07:23:21;2.03;;;1.80;;
8007;SDS011;4049;49.468;11.200;2024-02-04T07:25:48;9.60;;;4.13;;
8007;SDS011;4049;49.468;11.200;2024-02-04T07:28:14;4.20;;;2.53;;
8007;SDS011;4049;49.468;11.200;2024-02-04T07:30:41;2.33;;;1.77;;
8007;SDS011;4049;49.468;11.200;2024-02-04T07:33:08;4.23;;;2.60;;
8007;SDS011;4049;49.468;11.200;2024-02-04T07:35:37;2.40;;;1.50;;
8007;SDS011;4049;49.468;11.200;2024-02-04T07:38:03;1.23;;;1.13;;
8007;SDS011;4049;49.468;11.200;2024-02-04T07:40:30;1.50;;;1.40;;
8007;SDS011;4049;49.468;11.200;2024-02-04T07:42:57;2.07;;;1.70;;
8007;SDS011;4049;49.468;11.200;2024-02-04T07:45:24;2.40;;;2.20;;
8007;SDS011;4049;49.468;11.200;2024-02-04T07:47:51;1.20;;;1.10;;
8007;SDS011;4049;49.468;11.200;2024-02-04T07:50:18;1.10;;;1.00;;
8007;SDS011;4049;49.468;11.200;2024-02-04T07:52:46;4.33;;;3.33;;
8007;SDS011;4049;49.468;11.200;2024-02-04T07:55:15;2.73;;;2.03;;
8007;SDS011;4049;49.468;11.200;2024-02-04T07:57:41;5.93;;;3.33;;
8007;SDS011;4049;49.468;11.200;2024-02-04T08:00:09;7.13;;;4.60;;
8007;SDS011;4049;49.468;11.200;2024-02-04T08:02:36;3.57;;;2.93;;
8007;SDS011;4049;49.468;11.200;2024-02-04T08:05:03;2.00;;;1.70;;
8007;SDS011;4049;49.468;11.200;2024-02-04T08:07:31;2.67;;;2.10;;
8007;SDS011;4049;49.468;11.200;2024-02-04T08:09:59;2.80;;;1.60;;
8007;SDS011;4049;49.468;11.200;2024-02-04T08:12:26;1.20;;;1.10;;
8007;SDS011;4049;49.468;11.200;2024-02-04T08:14:53;2.03;;;1.70;;
8007;SDS011;4049;49.468;11.200;2024-02-04T08:17:20;2.73;;;2.00;;
8007;SDS011;4049;49.468;11.200;2024-02-04T08:19:47;1.67;;;1.23;;
8007;SDS011;4049;49.468;11.200;2024-02-04T08:22:14;2.20;;;1.43;;
8007;SDS011;4049;49.468;11.200;2024-02-04T08:24:42;2.33;;;1.73;;
8007;SDS011;4049;49.468;11.200;2024-02-04T08:27:11;1.23;;;1.10;;
8007;SDS011;4049;49.468;11.200;2024-02-04T08:29:37;1.60;;;1.50;;
8007;SDS011;4049;49.468;11.200;2024-02-04T08:32:05;2.00;;;1.73;;
8007;SDS011;4049;49.468;11.200;2024-02-04T08:34:32;1.60;;;1.50;;
8007;SDS011;4049;49.468;11.200;2024-02-04T08:36:59;1.50;;;1.13;;
8007;SDS011;4049;49.468;11.200;2024-02-04T08:39:26;1.17;;;1.07;;
8007;SDS011;4049;49.468;11.200;2024-02-04T08:41:55;2.70;;;1.70;;
8007;SDS011;4049;49.468;11.200;2024-02-04T08:44:23;2.13;;;1.63;;
8007;SDS011;4049;49.468;11.200;2024-02-04T08:46:50;1.73;;;1.30;;
8007;SDS011;4049;49.468;11.200;2024-02-04T08:49:16;2.17;;;1.90;;
8007;SDS011;4049;49.468;11.200;2024-02-04T08:51:43;3.73;;;3.00;;
8007;SDS011;4049;49.468;11.200;2024-02-04T08:54:10;2.17;;;1.70;;
8007;SDS011;4049;49.468;11.200;2024-02-04T08:56:37;2.87;;;2.47;;
8007;SDS011;4049;49.468;11.200;2024-02-04T08:59:04;2.70;;;2.10;;
8007;SDS011;4049;49.468;11.200;2024-02-04T09:01:33;3.30;;;2.30;;
8007;SDS011;4049;49.468;11.200;2024-02-04T09:03:59;3.90;;;2.73;;
8007;SDS011;4049;49.468;11.200;2024-02-04T09:06:26;1.57;;;1.47;;
8007;SDS011;4049;49.468;11.200;2024-02-04T09:08:53;1.43;;;1.33;;
8007;SDS011;4049;49.468;11.200;2024-02-04T09:11:20;1.70;;;1.50;;
8007;SDS011;4049;49.468;11.200;2024-02-04T09:13:49;1.10;;;1.00;;
8007;SDS011;4049;49.468;11.200;2024-02-04T09:16:16;1.63;;;1.43;;
8007;SDS011;4049;49.468;11.200;2024-02-04T09:18:44;1.30;;;1.20;;
8007;SDS011;4049;49.468;11.200;2024-02-04T09:21:12;1.80;;;1.30;;
8007;SDS011;4049;49.468;11.200;2024-02-04T09:23:39;1.70;;;1.60;;
8007;SDS011;4049;49.468;11.200;2024-02-04T09:26:09;1.50;;;1.40;;
8007;SDS011;4049;49.468;11.200;2024-02-04T09:28:35;1.83;;;1.67;;
8007;SDS011;4049;49.468;11.200;2024-02-04T09:31:03;1.10;;;1.03;;
8007;SDS011;4049;49.468;11.200;2024-02-04T09:33:30;2.33;;;1.90;;
8007;SDS011;4049;49.468;11.200;2024-02-04T09:35:58;2.50;;;1.93;;
8007;SDS011;4049;49.468;11.200;2024-02-04T09:38:25;1.20;;;1.10;;
8007;SDS011;4049;49.468;11.200;2024-02-04T09:40:52;1.40;;;1.30;;
8007;SDS011;4049;49.468;11.200;2024-02-04T09:43:19;2.50;;;1.90;;
8007;SDS011;4049;49.468;11.200;2024-02-04T09:45:46;1.90;;;1.70;;
8007;SDS011;4049;49.468;11.200;2024-02-04T09:48:14;2.47;;;2.10;;
8007;SDS011;4049;49.468;11.200;2024-02-04T09:50:45;1.20;;;1.10;;
8007;SDS011;4049;49.468;11.200;2024-02-04T09:53:14;1.00;;;0.90;;
8007;SDS011;4049;49.468;11.200;2024-02-04T09:55:45;1.80;;;1.70;;
8007;SDS011;4049;49.468;11.200;2024-02-04T09:58:12;1.30;;;1.20;;
8007;SDS011;4049;49.468;11.200;2024-02-04T10:00:39;1.20;;;1.10;;
8007;SDS011;4049;49.468;11.200;2024-02-04T10:03:10;1.93;;;1.80;;
8007;SDS011;4049;49.468;11.200;2024-02-04T10:05:37;3.23;;;2.80;;
8007;SDS011;4049;49.468;11.200;2024-02-04T10:08:04;1.73;;;1.47;;
8007;SDS011;4049;49.468;11.200;2024-02-04T10:10:32;1.40;;;1.20;;
8007;SDS011;4049;49.468;11.200;2024-02-04T10:13:04;3.00;;;1.73;;
8007;SDS011;4049;49.468;11.200;2024-02-04T10:15:32;1.40;;;1.30;;
8007;SDS011;4049;49.468;11.200;2024-02-04T10:17:59;1.10;;;1.00;;
8007;SDS011;4049;49.468;11.200;2024-02-04T10:20:29;1.67;;;1.50;;
8007;SDS011;4049;49.468;11.200;2024-02-04T10:22:56;2.20;;;1.10;;
8007;SDS011;4049;49.468;11.200;2024-02-04T10:25:23;1.20;;;1.10;;
8007;SDS011;4049;49.468;11.200;2024-02-04T10:27:51;0.97;;;0.97;;
8007;SDS011;4049;49.468;11.200;2024-02-04T10:30:19;1.17;;;1.07;;
8007;SDS011;4049;49.468;11.200;2024-02-04T10:32:47;1.10;;;0.90;;
8007;SDS011;4049;49.468;11.200;2024-02-04T10:35:16;2.17;;;0.90;;
8007;SDS011;4049;49.468;11.200;2024-02-04T10:37:44;1.27;;;1.10;;
8007;SDS011;4049;49.468;11.200;2024-02-04T10:40:11;0.70;;;0.70;;
8007;SDS011;4049;49.468;11.200;2024-02-04T10:42:38;1.23;;;0.90;;
8007;SDS011;4049;49.468;11.200;2024-02-04T10:45:09;0.80;;;0.80;;
8007;SDS011;4049;49.468;11.200;2024-02-04T10:47:38;1.10;;;1.00;;
8007;SDS011;4049;49.468;11.200;2024-02-04T10:50:05;1.13;;;0.87;;
8007;SDS011;4049;49.468;11.200;2024-02-04T10:52:35;1.20;;;1.10;;
8007;SDS011;4049;49.468;11.200;2024-02-04T10:55:05;0.90;;;0.80;;
8007;SDS011;4049;49.468;11.200;2024-02-04T10:57:35;5.17;;;1.30;;
8007;SDS011;4049;49.468;11.200;2024-02-04T11:00:02;0.80;;;0.80;;
8007;SDS011;4049;49.468;11.200;2024-02-04T11:02:35;1.00;;;1.00;;
8007;SDS011;4049;49.468;11.200;2024-02-04T11:05:02;1.37;;;1.10;;
8007;SDS011;4049;49.468;11.200;2024-02-04T11:07:31;1.30;;;1.20;;
8007;SDS011;4049;49.468;11.200;2024-02-04T11:09:59;1.53;;;1.20;;
8007;SDS011;4049;49.468;11.200;2024-02-04T11:12:27;1.10;;;1.00;;
8007;SDS011;4049;49.468;11.200;2024-02-04T11:14:56;0.87;;;0.87;;
8007;SDS011;4049;49.468;11.200;2024-02-04T11:17:34;1.87;;;1.10;;
8007;SDS011;4049;49.468;11.200;2024-02-04T11:20:19;0.93;;;0.90;;
8007;SDS011;4049;49.468;11.200;2024-02-04T11:23:01;0.90;;;0.80;;
8007;SDS011;4049;49.468;11.200;2024-02-04T11:25:43;0.90;;;0.80;;
8007;SDS011;4049;49.468;11.200;2024-02-04T11:28:12;0.70;;;0.70;;
8007;SDS011;4049;49.468;11.200;2024-02-04T11:30:39;1.20;;;0.90;;
8007;SDS011;4049;49.468;11.200;2024-02-04T11:33:08;1.00;;;0.80;;
8007;SDS011;4049;49.468;11.200;2024-02-04T11:35:37;0.70;;;0.70;;
8007;SDS011;4049;49.468;11.200;2024-02-04T11:38:04;1.50;;;1.10;;
8007;SDS011;4049;49.468;11.200;2024-02-04T11:40:33;1.37;;;1.27;;
8007;SDS011;4049;49.468;11.200;2024-02-04T11:43:04;3.10;;;1.20;;
8007;SDS011;4049;49.468;11.200;2024-02-04T11:45:31;1.10;;;1.00;;
8007;SDS011;4049;49.468;11.200;2024-02-04T11:48:00;1.20;;;1.00;;
8007;SDS011;4049;49.468;11.200;2024-02-04T11:50:29;1.00;;;0.90;;
8007;SDS011;4049;49.468;11.200;2024-02-04T11:53:01;0.63;;;0.63;;
8007;SDS011;4049;49.468;11.200;2024-02-04T11:55:31;1.03;;;0.90;;
8007;SDS011;4049;49.468;11.200;2024-02-04T11:57:58;1.47;;;1.37;;
8007;SDS011;4049;49.468;11.200;2024-02-04T12:00:26;6.03;;;3.00;;
8007;SDS011;4049;49.468;11.200;2024-02-04T12:02:59;1.37;;;1.00;;
8007;SDS011;4049;49.468;11.200;2024-02-04T12:05:28;4.80;;;2.27;;
8007;SDS011;4049;49.468;11.200;2024-02-04T12:07:57;2.67;;;1.67;;
8007;SDS011;4049;49.468;11.200;2024-02-04T12:10:24;6.63;;;3.47;;
8007;SDS011;4049;49.468;11.200;2024-02-04T12:12:53;1.90;;;1.60;;
8007;SDS011;4049;49.468;11.200;2024-02-04T12:15:21;1.30;;;1.20;;
8007;SDS011;4049;49.468;11.200;2024-02-04T12:17:48;1.20;;;1.00;;
8007;SDS011;4049;49.468;11.200;2024-02-04T12:20:15;1.80;;;1.10;;
8007;SDS011;4049;49.468;11.200;2024-02-04T12:22:43;1.47;;;1.30;;
8007;SDS011;4049;49.468;11.200;2024-02-04T12:25:10;1.10;;;1.00;;
8007;SDS011;4049;49.468;11.200;2024-02-04T12:27:37;1.53;;;1.00;;
8007;SDS011;4049;49.468;11.200;2024-02-04T12:30:04;0.90;;;0.90;;
8007;SDS011;4049;49.468;11.200;2024-02-04T12:32:35;0.77;;;0.77;;
8007;SDS011;4049;49.468;11.200;2024-02-04T12:35:02;1.10;;;1.00;;
8007;SDS011;4049;49.468;11.200;2024-02-04T12:37:31;1.10;;;1.00;;
8007;SDS011;4049;49.468;11.200;2024-02-04T12:40:00;2.23;;;1.40;;
8007;SDS011;4049;49.468;11.200;2024-02-04T12:42:28;1.23;;;1.13;;
8007;SDS011;4049;49.468;11.200;2024-02-04T12:44:56;0.60;;;0.60;;
8007;SDS011;4049;49.468;11.200;2024-02-04T12:47:23;1.03;;;0.93;;
8007;SDS011;4049;49.468;11.200;2024-02-04T12:49:57;1.60;;;1.50;;
8007;SDS011;4049;49.468;11.200;2024-02-04T12:52:25;1.23;;;1.13;;
8007;SDS011;4049;49.468;11.200;2024-02-04T12:54:52;1.20;;;1.10;;
8007;SDS011;4049;49.468;11.200;2024-02-04T12:57:24;1.50;;;1.40;;
8007;SDS011;4049;49.468;11.200;2024-02-04T12:59:51;2.70;;;1.27;;
8007;SDS011;4049;49.468;11.200;2024-02-04T13:02:18;1.30;;;1.20;;
8007;SDS011;4049;49.468;11.200;2024-02-04T13:04:46;1.70;;;1.00;;
8007;SDS011;4049;49.468;11.200;2024-02-04T13:07:13;1.73;;;1.10;;
8007;SDS011;4049;49.468;11.200;2024-02-04T13:09:41;1.97;;;1.07;;
8007;SDS011;4049;49.468;11.200;2024-02-04T13:12:09;1.13;;;0.90;;
8007;SDS011;4049;49.468;11.200;2024-02-04T13:14:38;1.40;;;1.30;;
8007;SDS011;4049;49.468;11.200;2024-02-04T13:17:05;1.07;;;1.00;;
8007;SDS011;4049;49.468;11.200;2024-02-04T13:19:32;1.20;;;1.10;;
8007;SDS011;4049;49.468;11.200;2024-02-04T13:22:01;2.10;;;1.60;;
8007;SDS011;4049;49.468;11.200;2024-02-04T13:24:28;1.20;;;1.10;;
8007;SDS011;4049;49.468;11.200;2024-02-04T13:26:55;2.07;;;1.40;;
8007;SDS011;4049;49.468;11.200;2024-02-04T13:29:22;2.90;;;1.27;;
8007;SDS011;4049;49.468;11.200;2024-02-04T13:31:50;1.70;;;1.13;;
8007;SDS011;4049;49.468;11.200;2024-02-04T13:34:17;2.43;;;1.53;;
8007;SDS011;4049;49.468;11.200;2024-02-04T13:36:45;2.00;;;1.00;;
8007;SDS011;4049;49.468;11.200;2024-02-04T13:39:12;1.60;;;1.40;;
8007;SDS011;4049;49.468;11.200;2024-02-04T13:41:39;2.30;;;1.23;;
8007;SDS011;4049;49.468;11.200;2024-02-04T13:44:06;1.77;;;1.30;;
8007;SDS011;4049;49.468;11.200;2024-02-04T13:46:33;2.27;;;1.50;;
8007;SDS011;4049;49.468;11.200;2024-02-04T13:49:01;1.20;;;1.10;;
8007;SDS011;4049;49.468;11.200;2024-02-04T13:51:29;1.53;;;1.30;;
8007;SDS011;4049;49.468;11.200;2024-02-04T13:53:56;1.70;;;1.60;;
8007;SDS011;4049;49.468;11.200;2024-02-04T13:56:22;2.20;;;1.63;;
8007;SDS011;4049;49.468;11.200;2024-02-04T13:58:49;1.70;;;1.50;;
8007;SDS011;4049;49.468;11.200;2024-02-04T14:01:16;1.10;;;1.00;;
8007;SDS011;4049;49.468;11.200;2024-02-04T14:03:45;0.93;;;0.83;;
8007;SDS011;4049;49.468;11.200;2024-02-04T14:06:13;2.20;;;1.13;;
8007;SDS011;4049;49.468;11.200;2024-02-04T14:08:40;1.77;;;1.30;;
8007;SDS011;4049;49.468;11.200;2024-02-04T14:11:06;1.00;;;0.90;;
8007;SDS011;4049;49.468;11.200;2024-02-04T14:13:33;2.83;;;1.43;;
8007;SDS011;4049;49.468;11.200;2024-02-04T14:16:00;1.30;;;1.20;;
8007;SDS011;4049;49.468;11.200;2024-02-04T14:18:27;1.30;;;1.20;;
8007;SDS011;4049;49.468;11.200;2024-02-04T14:20:54;1.63;;;1.40;;
8007;SDS011;4049;49.468;11.200;2024-02-04T14:23:22;1.33;;;1.17;;
8007;SDS011;4049;49.468;11.200;2024-02-04T14:25:49;1.30;;;1.20;;
8007;SDS011;4049;49.468;11.200;2024-02-04T14:28:16;1.03;;;1.00;;
8007;SDS011;4049;49.468;11.200;2024-02-04T14:30:43;1.10;;;1.00;;
8007;SDS011;4049;49.468;11.200;2024-02-04T14:33:10;1.53;;;1.20;;
8007;SDS011;4049;49.468;11.200;2024-02-04T14:35:36;1.13;;;1.07;;
8007;SDS011;4049;49.468;11.200;2024-02-04T14:38:03;1.33;;;1.23;;
8007;SDS011;4049;49.468;11.200;2024-02-04T14:40:31;1.30;;;1.20;;
8007;SDS011;4049;49.468;11.200;2024-02-04T14:42:58;1.27;;;1.17;;
8007;SDS011;4049;49.468;11.200;2024-02-04T14:45:27;1.37;;;1.10;;
8007;SDS011;4049;49.468;11.200;2024-02-04T14:47:54;1.17;;;1.07;;
8007;SDS011;4049;49.468;11.200;2024-02-04T14:50:21;2.27;;;1.20;;
8007;SDS011;4049;49.468;11.200;2024-02-04T14:52:48;1.20;;;1.03;;
8007;SDS011;4049;49.468;11.200;2024-02-04T14:55:14;2.53;;;1.50;;
8007;SDS011;4049;49.468;11.200;2024-02-04T14:57:43;1.60;;;1.40;;
8007;SDS011;4049;49.468;11.200;2024-02-04T15:00:10;1.27;;;1.17;;
8007;SDS011;4049;49.468;11.200;2024-02-04T15:02:37;1.30;;;1.20;;
8007;SDS011;4049;49.468;11.200;2024-02-04T15:05:05;1.20;;;1.10;;